sensor_id;sensor_type;location;lat;lon;timestamp;pressure;altitude;pressure_sealevel;temperature;humidity
72612;BME280;60655;52.182;4.474;2024-02-16T00:01:07;100789.63;;;12.62;100.00
72612;BME280;60655;52.182;4.474;2024-02-16T00:03:08;100781.41;;;12.64;100.00
72612;BME280;60655;52.182;4.474;2024-02-16T00:05:09;100776.28;;;12.62;100.00
72612;BME280;60655;52.182;4.474;2024-02-16T00:07:12;100775.59;;;12.55;100.00
72612;BME280;60655;52.182;4.474;2024-02-16T00:09:13;100778.16;;;12.62;100.00
72612;BME280;60655;52.182;4.474;2024-02-16T00:11:14;100768.84;;;12.52;100.00
72612;BME280;60655;52.182;4.474;2024-02-16T00:13:15;100778.03;;;12.57;100.00
72612;BME280;60655;52.182;4.474;2024-02-16T00:15:15;100774.53;;;12.56;100.00
72612;BME280;60655;52.182;4.474;2024-02-16T00:17:16;100773.03;;;12.60;100.00
72612;BME280;60655;52.182;4.474;2024-02-16T00:19:17;100769.34;;;12.61;100.00
72612;BME280;60655;52.182;4.474;2024-02-16T00:21:18;100773.84;;;12.61;100.00
72612;BME280;60655;52.182;4.474;2024-02-16T00:23:20;100773.16;;;12.65;100.00
72612;BME280;60655;52.182;4.474;2024-02-16T00:25:23;100772.47;;;12.58;100.00
72612;BME280;60655;52.182;4.474;2024-02-16T00:27:24;100776.41;;;12.56;100.00
72612;BME280;60655;52.182;4.474;2024-02-16T00:29:25;100776.84;;;12.52;100.00
72612;BME280;60655;52.182;4.474;2024-02-16T00:31:26;100774.91;;;12.60;100.00
72612;BME280;60655;52.182;4.474;2024-02-16T00:33:27;100771.06;;;12.56;100.00
72612;BME280;60655;52.182;4.474;2024-02-16T00:35:29;100775.47;;;12.50;100.00
72612;BME280;60655;52.182;4.474;2024-02-16T00:37:33;100775.00;;;12.53;100.00
72612;BME280;60655;52.182;4.474;2024-02-16T00:39:38;100767.81;;;12.54;100.00
72612;BME280;60655;52.182;4.474;2024-02-16T00:41:42;100777.22;;;12.56;100.00
72612;BME280;60655;52.182;4.474;2024-02-16T00:43:43;100773.97;;;12.54;100.00
72612;BME280;60655;52.182;4.474;2024-02-16T00:45:45;100756.00;;;12.49;100.00
72612;BME280;60655;52.182;4.474;2024-02-16T00:47:46;100763.66;;;12.58;100.00
72612;BME280;60655;52.182;4.474;2024-02-16T00:49:49;100764.56;;;12.51;100.00
72612;BME280;60655;52.182;4.474;2024-02-16T00:51:50;100767.00;;;12.53;100.00
72612;BME280;60655;52.182;4.474;2024-02-16T00:53:51;100764.00;;;12.49;100.00
72612;BME280;60655;52.182;4.474;2024-02-16T00:55:53;100762.59;;;12.47;100.00
72612;BME280;60655;52.182;4.474;2024-02-16T00:57:54;100758.88;;;12.48;100.00
72612;BME280;60655;52.182;4.474;2024-02-16T00:59:55;100754.59;;;12.47;100.00
72612;BME280;60655;52.182;4.474;2024-02-16T01:01:56;100753.69;;;12.41;100.00
72612;BME280;60655;52.182;4.474;2024-02-16T01:03:57;100762.13;;;12.50;100.00
72612;BME280;60655;52.182;4.474;2024-02-16T01:05:58;100758.75;;;12.43;100.00
72612;BME280;60655;52.182;4.474;2024-02-16T01:07:59;100755.63;;;12.46;100.00
72612;BME280;60655;52.182;4.474;2024-02-16T01:10:00;100756.59;;;12.40;100.00
72612;BME280;60655;52.182;4.474;2024-02-16T01:12:01;100758.44;;;12.39;100.00
72612;BME280;60655;52.182;4.474;2024-02-16T01:14:02;100760.63;;;12.42;100.00
72612;BME280;60655;52.182;4.474;2024-02-16T01:16:03;100762.81;;;12.45;100.00
72612;BME280;60655;52.182;4.474;2024-02-16T01:18:05;100761.44;;;12.43;100.00
72612;BME280;60655;52.182;4.474;2024-02-16T01:20:07;100760.97;;;12.46;100.00
72612;BME280;60655;52.182;4.474;2024-02-16T01:22:11;100755.28;;;12.42;100.00
72612;BME280;60655;52.182;4.474;2024-02-16T01:24:12;100748.47;;;12.35;100.00
72612;BME280;60655;52.182;4.474;2024-02-16T01:26:13;100738.63;;;12.47;100.00
72612;BME280;60655;52.182;4.474;2024-02-16T01:28:14;100735.38;;;12.45;100.00
72612;BME280;60655;52.182;4.474;2024-02-16T01:30:15;100724.50;;;12.35;100.00
72612;BME280;60655;52.182;4.474;2024-02-16T01:32:16;100737.81;;;12.35;100.00
72612;BME280;60655;52.182;4.474;2024-02-16T01:34:17;100733.28;;;12.35;100.00
72612;BME280;60655;52.182;4.474;2024-02-16T01:36:19;100718.31;;;12.23;100.00
72612;BME280;60655;52.182;4.474;2024-02-16T01:38:20;100717.28;;;12.24;100.00
72612;BME280;60655;52.182;4.474;2024-02-16T01:40:23;100718.81;;;12.31;100.00
72612;BME280;60655;52.182;4.474;2024-02-16T01:42:26;100718.22;;;12.29;100.00
72612;BME280;60655;52.182;4.474;2024-02-16T01:44:27;100721.69;;;12.30;100.00
72612;BME280;60655;52.182;4.474;2024-02-16T01:46:28;100735.03;;;12.30;100.00
72612;BME280;60655;52.182;4.474;2024-02-16T01:48:30;100728.84;;;12.17;100.00
72612;BME280;60655;52.182;4.474;2024-02-16T01:50:31;100732.91;;;12.20;100.00
72612;BME280;60655;52.182;4.474;2024-02-16T01:52:34;100740.44;;;12.23;100.00
72612;BME280;60655;52.182;4.474;2024-02-16T01:54:37;100736.75;;;12.24;100.00
72612;BME280;60655;52.182;4.474;2024-02-16T01:56:39;100733.41;;;12.29;100.00
72612;BME280;60655;52.182;4.474;2024-02-16T01:58:40;100725.84;;;12.26;100.00
72612;BME280;60655;52.182;4.474;2024-02-16T02:00:41;100714.84;;;12.22;100.00
72612;BME280;60655;52.182;4.474;2024-02-16T02:02:45;100715.75;;;12.16;100.00
72612;BME280;60655;52.182;4.474;2024-02-16T02:04:47;100713.22;;;12.09;100.00
72612;BME280;60655;52.182;4.474;2024-02-16T02:06:47;100723.41;;;12.12;100.00
72612;BME280;60655;52.182;4.474;2024-02-16T02:08:48;100715.53;;;12.17;100.00
72612;BME280;60655;52.182;4.474;2024-02-16T02:10:50;100717.97;;;12.19;100.00
72612;BME280;60655;52.182;4.474;2024-02-16T02:12:51;100718.78;;;12.20;100.00
72612;BME280;60655;52.182;4.474;2024-02-16T02:14:52;100704.78;;;12.12;100.00
72612;BME280;60655;52.182;4.474;2024-02-16T02:16:53;100716.56;;;12.16;100.00
72612;BME280;60655;52.182;4.474;2024-02-16T02:18:54;100720.28;;;12.15;100.00
72612;BME280;60655;52.182;4.474;2024-02-16T02:20:54;100725.97;;;12.19;100.00
72612;BME280;60655;52.182;4.474;2024-02-16T02:22:55;100726.31;;;12.23;100.00
72612;BME280;60655;52.182;4.474;2024-02-16T02:24:56;100716.94;;;12.20;100.00
72612;BME280;60655;52.182;4.474;2024-02-16T02:26:57;100721.31;;;12.14;100.00
72612;BME280;60655;52.182;4.474;2024-02-16T02:28:58;100718.09;;;12.12;100.00
72612;BME280;60655;52.182;4.474;2024-02-16T02:30:59;100716.94;;;12.08;100.00
72612;BME280;60655;52.182;4.474;2024-02-16T02:33:00;100720.19;;;12.10;100.00
72612;BME280;60655;52.182;4.474;2024-02-16T02:35:02;100727.13;;;12.11;100.00
72612;BME280;60655;52.182;4.474;2024-02-16T02:37:05;100706.72;;;12.05;100.00
72612;BME280;60655;52.182;4.474;2024-02-16T02:39:06;100712.88;;;12.17;100.00
72612;BME280;60655;52.182;4.474;2024-02-16T02:41:07;100704.78;;;12.12;100.00
72612;BME280;60655;52.182;4.474;2024-02-16T02:43:08;100714.03;;;12.10;100.00
72612;BME280;60655;52.182;4.474;2024-02-16T02:45:09;100695.63;;;12.08;100.00
72612;BME280;60655;52.182;4.474;2024-02-16T02:47:10;100700.94;;;12.08;100.00
72612;BME280;60655;52.182;4.474;2024-02-16T02:49:11;100694.81;;;12.08;100.00
72612;BME280;60655;52.182;4.474;2024-02-16T02:51:12;100698.16;;;12.03;100.00
72612;BME280;60655;52.182;4.474;2024-02-16T02:53:13;100701.63;;;12.04;100.00
72612;BME280;60655;52.182;4.474;2024-02-16T02:55:14;100704.38;;;11.97;100.00
72612;BME280;60655;52.182;4.474;2024-02-16T02:57:15;100697.66;;;11.95;100.00
72612;BME280;60655;52.182;4.474;2024-02-16T02:59:16;100699.78;;;12.04;100.00
72612;BME280;60655;52.182;4.474;2024-02-16T03:01:18;100701.03;;;12.02;100.00
72612;BME280;60655;52.182;4.474;2024-02-16T03:03:22;100694.91;;;12.01;100.00
72612;BME280;60655;52.182;4.474;2024-02-16T03:05:23;100696.03;;;11.94;100.00
72612;BME280;60655;52.182;4.474;2024-02-16T03:07:25;100689.09;;;11.93;100.00
72612;BME280;60655;52.182;4.474;2024-02-16T03:09:26;100695.47;;;11.92;100.00
72612;BME280;60655;52.182;4.474;2024-02-16T03:11:27;100683.19;;;11.91;100.00
72612;BME280;60655;52.182;4.474;2024-02-16T03:13:27;100690.50;;;11.95;100.00
72612;BME280;60655;52.182;4.474;2024-02-16T03:15:29;100689.59;;;12.01;100.00
72612;BME280;60655;52.182;4.474;2024-02-16T03:17:30;100690.63;;;12.00;100.00
72612;BME280;60655;52.182;4.474;2024-02-16T03:19:31;100683.91;;;11.98;100.00
72612;BME280;60655;52.182;4.474;2024-02-16T03:21:32;100682.63;;;12.00;100.00
72612;BME280;60655;52.182;4.474;2024-02-16T03:23:33;100675.09;;;11.97;100.00
72612;BME280;60655;52.182;4.474;2024-02-16T03:25:34;100669.09;;;12.02;100.00
72612;BME280;60655;52.182;4.474;2024-02-16T03:27:35;100674.44;;;12.02;100.00
72612;BME280;60655;52.182;4.474;2024-02-16T03:29:36;100672.44;;;11.97;100.00
72612;BME280;60655;52.182;4.474;2024-02-16T03:31:37;100679.84;;;11.95;100.00
72612;BME280;60655;52.182;4.474;2024-02-16T03:33:37;100686.91;;;12.01;100.00
72612;BME280;60655;52.182;4.474;2024-02-16T03:35:38;100681.00;;;11.99;100.00
72612;BME280;60655;52.182;4.474;2024-02-16T03:37:40;100682.63;;;12.00;100.00
72612;BME280;60655;52.182;4.474;2024-02-16T03:39:42;100685.88;;;12.02;100.00
72612;BME280;60655;52.182;4.474;2024-02-16T03:41:43;100686.56;;;11.98;100.00
72612;BME280;60655;52.182;4.474;2024-02-16T03:43:48;100680.44;;;11.97;100.00
72612;BME280;60655;52.182;4.474;2024-02-16T03:45:49;100682.63;;;12.00;100.00
72612;BME280;60655;52.182;4.474;2024-02-16T03:47:50;100669.81;;;12.09;100.00
72612;BME280;60655;52.182;4.474;2024-02-16T03:49:53;100664.94;;;12.06;100.00
72612;BME280;60655;52.182;4.474;2024-02-16T03:51:54;100666.66;;;12.00;100.00
72612;BME280;60655;52.182;4.474;2024-02-16T03:53:55;100665.28;;;12.09;100.00
72612;BME280;60655;52.182;4.474;2024-02-16T03:55:56;100649.78;;;12.06;100.00
72612;BME280;60655;52.182;4.474;2024-02-16T03:57:57;100654.97;;;12.01;100.00
72612;BME280;60655;52.182;4.474;2024-02-16T03:59:58;100665.75;;;12.06;100.00
72612;BME280;60655;52.182;4.474;2024-02-16T04:02:00;100665.16;;;12.04;100.00
72612;BME280;60655;52.182;4.474;2024-02-16T04:04:01;100661.25;;;12.07;100.00
72612;BME280;60655;52.182;4.474;2024-02-16T04:06:04;100666.34;;;12.08;100.00
72612;BME280;60655;52.182;4.474;2024-02-16T04:08:05;100680.78;;;12.01;100.00
72612;BME280;60655;52.182;4.474;2024-02-16T04:10:07;100682.75;;;12.05;100.00
72612;BME280;60655;52.182;4.474;2024-02-16T04:12:08;100683.81;;;12.04;100.00
72612;BME280;60655;52.182;4.474;2024-02-16T04:14:10;100682.88;;;11.99;100.00
72612;BME280;60655;52.182;4.474;2024-02-16T04:16:12;100678.72;;;12.03;100.00
72612;BME280;60655;52.182;4.474;2024-02-16T04:18:13;100674.75;;;11.94;100.00
72612;BME280;60655;52.182;4.474;2024-02-16T04:20:15;100679.63;;;11.97;100.00
72612;BME280;60655;52.182;4.474;2024-02-16T04:22:16;100686.22;;;11.94;100.00
72612;BME280;60655;52.182;4.474;2024-02-16T04:24:17;100684.81;;;11.92;100.00
72612;BME280;60655;52.182;4.474;2024-02-16T04:26:18;100684.00;;;11.91;100.00
72612;BME280;60655;52.182;4.474;2024-02-16T04:28:19;100692.34;;;11.95;100.00
72612;BME280;60655;52.182;4.474;2024-02-16T04:30:20;100675.44;;;11.89;100.00
72612;BME280;60655;52.182;4.474;2024-02-16T04:32:21;100687.00;;;11.83;100.00
72612;BME280;60655;52.182;4.474;2024-02-16T04:34:22;100680.63;;;11.84;100.00
72612;BME280;60655;52.182;4.474;2024-02-16T04:36:23;100667.44;;;11.77;100.00
72612;BME280;60655;52.182;4.474;2024-02-16T04:38:24;100682.13;;;11.80;100.00
72612;BME280;60655;52.182;4.474;2024-02-16T04:40:25;100685.84;;;11.79;100.00
72612;BME280;60655;52.182;4.474;2024-02-16T04:42:27;100684.81;;;11.80;100.00
72612;BME280;60655;52.182;4.474;2024-02-16T04:44:28;100689.66;;;11.83;100.00
72612;BME280;60655;52.182;4.474;2024-02-16T04:46:29;100683.00;;;11.74;100.00
72612;BME280;60655;52.182;4.474;2024-02-16T04:48:30;100680.28;;;11.80;100.00
72612;BME280;60655;52.182;4.474;2024-02-16T04:50:32;100679.31;;;11.75;100.00
72612;BME280;60655;52.182;4.474;2024-02-16T04:52:34;100686.44;;;11.81;100.00
72612;BME280;60655;52.182;4.474;2024-02-16T04:54:34;100680.63;;;11.84;100.00
72612;BME280;60655;52.182;4.474;2024-02-16T04:56:36;100680.06;;;11.82;100.00
72612;BME280;60655;52.182;4.474;2024-02-16T04:58:41;100677.84;;;11.79;100.00
72612;BME280;60655;52.182;4.474;2024-02-16T05:00:42;100675.25;;;11.72;100.00
72612;BME280;60655;52.182;4.474;2024-02-16T05:02:43;100688.78;;;11.71;100.00
72612;BME280;60655;52.182;4.474;2024-02-16T05:04:44;100667.94;;;11.68;100.00
72612;BME280;60655;52.182;4.474;2024-02-16T05:06:45;100673.19;;;11.74;100.00
72612;BME280;60655;52.182;4.474;2024-02-16T05:08:47;100680.66;;;11.66;100.00
72612;BME280;60655;52.182;4.474;2024-02-16T05:10:48;100684.03;;;11.73;100.00
72612;BME280;60655;52.182;4.474;2024-02-16T05:12:48;100680.00;;;11.70;100.00
72612;BME280;60655;52.182;4.474;2024-02-16T05:14:50;100688.66;;;11.66;100.00
72612;BME280;60655;52.182;4.474;2024-02-16T05:16:51;100689.81;;;11.70;100.00
72612;BME280;60655;52.182;4.474;2024-02-16T05:18:52;100688.66;;;11.66;100.00
72612;BME280;60655;52.182;4.474;2024-02-16T05:20:53;100681.25;;;11.68;100.00
72612;BME280;60655;52.182;4.474;2024-02-16T05:22:54;100685.84;;;11.61;100.00
72612;BME280;60655;52.182;4.474;2024-02-16T05:24:55;100680.66;;;11.66;100.00
72612;BME280;60655;52.182;4.474;2024-02-16T05:26:56;100691.31;;;11.66;100.00
72612;BME280;60655;52.182;4.474;2024-02-16T05:28:57;100679.41;;;11.68;100.00
72612;BME280;60655;52.182;4.474;2024-02-16T05:31:04;100677.06;;;11.60;100.00
72612;BME280;60655;52.182;4.474;2024-02-16T05:33:13;100689.53;;;11.60;100.00
72612;BME280;60655;52.182;4.474;2024-02-16T05:35:14;100687.84;;;11.65;100.00
72612;BME280;60655;52.182;4.474;2024-02-16T05:37:17;100698.34;;;11.60;100.00
72612;BME280;60655;52.182;4.474;2024-02-16T05:39:18;100693.59;;;11.62;100.00
72612;BME280;60655;52.182;4.474;2024-02-16T05:41:27;100697.66;;;11.65;100.00
72612;BME280;60655;52.182;4.474;2024-02-16T05:43:28;100701.13;;;11.65;100.00
72612;BME280;60655;52.182;4.474;2024-02-16T05:45:29;100705.88;;;11.63;100.00
72612;BME280;60655;52.182;4.474;2024-02-16T05:47:30;100703.44;;;11.62;100.00
72612;BME280;60655;52.182;4.474;2024-02-16T05:49:30;100699.06;;;11.67;100.00
72612;BME280;60655;52.182;4.474;2024-02-16T05:51:35;100688.06;;;11.64;100.00
72612;BME280;60655;52.182;4.474;2024-02-16T05:53:37;100705.78;;;11.70;100.00
72612;BME280;60655;52.182;4.474;2024-02-16T05:55:37;100703.13;;;11.70;100.00
72612;BME280;60655;52.182;4.474;2024-02-16T05:57:39;100697.81;;;11.70;100.00
72612;BME280;60655;52.182;4.474;2024-02-16T05:59:41;100701.50;;;11.69;100.00
72612;BME280;60655;52.182;4.474;2024-02-16T06:01:42;100701.88;;;11.72;100.00
72612;BME280;60655;52.182;4.474;2024-02-16T06:03:43;100706.38;;;11.72;100.00
72612;BME280;60655;52.182;4.474;2024-02-16T06:05:44;100702.41;;;11.63;100.00
72612;BME280;60655;52.182;4.474;2024-02-16T06:07:46;100699.66;;;11.69;100.00
72612;BME280;60655;52.182;4.474;2024-02-16T06:09:46;100699.78;;;11.74;100.00
72612;BME280;60655;52.182;4.474;2024-02-16T06:11:47;100705.94;;;11.75;100.00
72612;BME280;60655;52.182;4.474;2024-02-16T06:13:49;100712.44;;;11.79;100.00
72612;BME280;60655;52.182;4.474;2024-02-16T06:15:50;100710.66;;;11.73;100.00
72612;BME280;60655;52.182;4.474;2024-02-16T06:17:51;100712.00;;;11.82;100.00
72612;BME280;60655;52.182;4.474;2024-02-16T06:19:52;100705.28;;;11.79;100.00
72612;BME280;60655;52.182;4.474;2024-02-16T06:21:53;100709.91;;;11.84;100.00
72612;BME280;60655;52.182;4.474;2024-02-16T06:23:58;100714.88;;;11.80;100.00
72612;BME280;60655;52.182;4.474;2024-02-16T06:25:59;100712.00;;;11.82;100.00
72612;BME280;60655;52.182;4.474;2024-02-16T06:28:00;100712.81;;;11.82;100.00
72612;BME280;60655;52.182;4.474;2024-02-16T06:30:04;100715.34;;;11.77;100.00
72612;BME280;60655;52.182;4.474;2024-02-16T06:32:05;100718.00;;;11.77;100.00
72612;BME280;60655;52.182;4.474;2024-02-16T06:34:07;100709.03;;;11.72;100.00
72612;BME280;60655;52.182;4.474;2024-02-16T06:36:08;100723.78;;;11.86;100.00
72612;BME280;60655;52.182;4.474;2024-02-16T06:38:10;100722.53;;;11.89;100.00
72612;BME280;60655;52.182;4.474;2024-02-16T06:40:11;100733.75;;;11.91;100.00
72612;BME280;60655;52.182;4.474;2024-02-16T06:42:12;100725.19;;;11.89;100.00
72612;BME280;60655;52.182;4.474;2024-02-16T06:44:13;100740.94;;;11.90;100.00
72612;BME280;60655;52.182;4.474;2024-02-16T06:46:15;100730.06;;;11.92;100.00
72612;BME280;60655;52.182;4.474;2024-02-16T06:48:16;100742.69;;;11.96;100.00
72612;BME280;60655;52.182;4.474;2024-02-16T06:50:16;100742.34;;;11.93;100.00
72612;BME280;60655;52.182;4.474;2024-02-16T06:52:17;100732.94;;;11.90;100.00
72612;BME280;60655;52.182;4.474;2024-02-16T06:54:19;100747.53;;;11.88;100.00
72612;BME280;60655;52.182;4.474;2024-02-16T06:56:20;100737.59;;;11.95;100.00
72612;BME280;60655;52.182;4.474;2024-02-16T06:58:21;100749.66;;;11.97;100.00
72612;BME280;60655;52.182;4.474;2024-02-16T07:00:22;100749.06;;;11.95;100.00
72612;BME280;60655;52.182;4.474;2024-02-16T07:02:23;100750.81;;;12.01;100.00
72612;BME280;60655;52.182;4.474;2024-02-16T07:04:25;100752.44;;;12.02;100.00
72612;BME280;60655;52.182;4.474;2024-02-16T07:06:26;100744.22;;;12.04;100.00
72612;BME280;60655;52.182;4.474;2024-02-16T07:08:26;100744.81;;;12.06;100.00
72612;BME280;60655;52.182;4.474;2024-02-16T07:10:27;100757.78;;;12.14;100.00
72612;BME280;60655;52.182;4.474;2024-02-16T07:12:28;100766.72;;;12.20;100.00
72612;BME280;60655;52.182;4.474;2024-02-16T07:14:29;100757.44;;;12.10;100.00
72612;BME280;60655;52.182;4.474;2024-02-16T07:16:30;100759.06;;;12.11;100.00
72612;BME280;60655;52.182;4.474;2024-02-16T07:18:33;100772.63;;;12.22;100.00
72612;BME280;60655;52.182;4.474;2024-02-16T07:20:34;100768.34;;;12.21;100.00
72612;BME280;60655;52.182;4.474;2024-02-16T07:22:35;100772.19;;;12.25;100.00
72612;BME280;60655;52.182;4.474;2024-02-16T07:24:36;100775.88;;;12.24;100.00
72612;BME280;60655;52.182;4.474;2024-02-16T07:26:36;100786.31;;;12.25;100.00
72612;BME280;60655;52.182;4.474;2024-02-16T07:28:37;100788.06;;;12.31;100.00
72612;BME280;60655;52.182;4.474;2024-02-16T07:30:38;100789.47;;;12.34;100.00
72612;BME280;60655;52.182;4.474;2024-02-16T07:32:39;100792.03;;;12.40;100.00
72612;BME280;60655;52.182;4.474;2024-02-16T07:34:40;100808.25;;;12.39;100.00
72612;BME280;60655;52.182;4.474;2024-02-16T07:36:41;100812.31;;;12.41;100.00
72612;BME280;60655;52.182;4.474;2024-02-16T07:38:42;100816.56;;;12.42;100.00
72612;BME280;60655;52.182;4.474;2024-02-16T07:40:43;100803.94;;;12.38;100.00
72612;BME280;60655;52.182;4.474;2024-02-16T07:42:46;100813.44;;;12.45;100.00
72612;BME280;60655;52.182;4.474;2024-02-16T07:44:47;100806.97;;;12.41;100.00
72612;BME280;60655;52.182;4.474;2024-02-16T07:46:48;100829.47;;;12.57;100.00
72612;BME280;60655;52.182;4.474;2024-02-16T07:48:51;100822.63;;;12.61;100.00
72612;BME280;60655;52.182;4.474;2024-02-16T07:50:52;100840.03;;;12.64;100.00
72612;BME280;60655;52.182;4.474;2024-02-16T07:52:53;100844.09;;;12.66;100.00
72612;BME280;60655;52.182;4.474;2024-02-16T07:54:54;100842.81;;;12.69;100.00
72612;BME280;60655;52.182;4.474;2024-02-16T07:56:55;100857.66;;;12.76;100.00
72612;BME280;60655;52.182;4.474;2024-02-16T07:58:56;100839.94;;;12.70;100.00
72612;BME280;60655;52.182;4.474;2024-02-16T08:00:57;100859.03;;;12.79;100.00
72612;BME280;60655;52.182;4.474;2024-02-16T08:02:58;100851.16;;;12.72;100.00
72612;BME280;60655;52.182;4.474;2024-02-16T08:04:59;100849.88;;;12.75;100.00
72612;BME280;60655;52.182;4.474;2024-02-16T08:07:00;100850.81;;;12.80;100.00
72612;BME280;60655;52.182;4.474;2024-02-16T08:09:03;100854.28;;;12.81;100.00
72612;BME280;60655;52.182;4.474;2024-02-16T08:11:04;100858.00;;;12.80;100.00
72612;BME280;60655;52.182;4.474;2024-02-16T08:13:05;100859.41;;;12.82;100.00
72612;BME280;60655;52.182;4.474;2024-02-16T08:15:07;100859.97;;;12.84;100.00
72612;BME280;60655;52.182;4.474;2024-02-16T08:17:09;100864.28;;;12.85;100.00
72612;BME280;60655;52.182;4.474;2024-02-16T08:19:10;100864.84;;;12.88;100.00
72612;BME280;60655;52.182;4.474;2024-02-16T08:21:11;100865.09;;;12.86;100.00
72612;BME280;60655;52.182;4.474;2024-02-16T08:23:12;100867.53;;;12.88;100.00
72612;BME280;60655;52.182;4.474;2024-02-16T08:25:13;100873.22;;;12.91;100.00
72612;BME280;60655;52.182;4.474;2024-02-16T08:27:14;100865.09;;;12.86;100.00
72612;BME280;60655;52.182;4.474;2024-02-16T08:29:15;100871.47;;;12.85;100.00
72612;BME280;60655;52.182;4.474;2024-02-16T08:31:17;100886.66;;;12.84;100.00
72612;BME280;60655;52.182;4.474;2024-02-16T08:33:18;100893.59;;;12.85;100.00
72612;BME280;60655;52.182;4.474;2024-02-16T08:35:19;100897.75;;;12.81;100.00
72612;BME280;60655;52.182;4.474;2024-02-16T08:37:20;100900.88;;;12.78;100.00
72612;BME280;60655;52.182;4.474;2024-02-16T08:39:21;100910.16;;;12.76;100.00
72612;BME280;60655;52.182;4.474;2024-02-16T08:41:25;100915.25;;;12.77;100.00
72612;BME280;60655;52.182;4.474;2024-02-16T08:43:26;100918.38;;;12.74;100.00
72612;BME280;60655;52.182;4.474;2024-02-16T08:45:27;100923.94;;;12.73;100.00
72612;BME280;60655;52.182;4.474;2024-02-16T08:47:28;100919.31;;;12.68;100.00
72612;BME280;60655;52.182;4.474;2024-02-16T08:49:29;100928.13;;;12.69;100.00
72612;BME280;60655;52.182;4.474;2024-02-16T08:51:31;100924.94;;;12.60;100.00
72612;BME280;60655;52.182;4.474;2024-02-16T08:53:32;100935.59;;;12.60;100.00
72612;BME280;60655;52.182;4.474;2024-02-16T08:55:33;100936.38;;;12.49;100.00
72612;BME280;60655;52.182;4.474;2024-02-16T08:57:34;100945.19;;;12.49;100.00
72612;BME280;60655;52.182;4.474;2024-02-16T08:59:35;100949.31;;;12.45;100.00
72612;BME280;60655;52.182;4.474;2024-02-16T09:01:38;100953.25;;;12.43;100.00
72612;BME280;60655;52.182;4.474;2024-02-16T09:03:40;100957.88;;;12.36;100.00
72612;BME280;60655;52.182;4.474;2024-02-16T09:05:41;100974.97;;;12.28;100.00
72612;BME280;60655;52.182;4.474;2024-02-16T09:07:44;100967.94;;;12.15;100.00
72612;BME280;60655;52.182;4.474;2024-02-16T09:09:45;100973.81;;;12.06;100.00
72612;BME280;60655;52.182;4.474;2024-02-16T09:11:46;100970.63;;;11.97;100.00
72612;BME280;60655;52.182;4.474;2024-02-16T09:13:48;100981.28;;;11.97;100.00
72612;BME280;60655;52.182;4.474;2024-02-16T09:15:48;100981.19;;;11.86;100.00
72612;BME280;60655;52.182;4.474;2024-02-16T09:17:52;100985.56;;;11.80;100.00
72612;BME280;60655;52.182;4.474;2024-02-16T09:19:53;100981.13;;;11.67;100.00
72612;BME280;60655;52.182;4.474;2024-02-16T09:21:54;100982.09;;;11.55;100.00
72612;BME280;60655;52.182;4.474;2024-02-16T09:23:56;100983.94;;;11.54;100.00
72612;BME280;60655;52.182;4.474;2024-02-16T09:26:02;100997.50;;;11.46;100.00
72612;BME280;60655;52.182;4.474;2024-02-16T09:28:03;100987.91;;;11.45;100.00
72612;BME280;60655;52.182;4.474;2024-02-16T09:30:04;101007.28;;;11.52;100.00
72612;BME280;60655;52.182;4.474;2024-02-16T09:32:06;101000.53;;;11.49;100.00
72612;BME280;60655;52.182;4.474;2024-02-16T09:34:07;101017.38;;;11.43;100.00
72612;BME280;60655;52.182;4.474;2024-02-16T09:36:08;101007.22;;;11.34;100.00
72612;BME280;60655;52.182;4.474;2024-02-16T09:38:10;100996.31;;;11.17;100.00
72612;BME280;60655;52.182;4.474;2024-02-16T09:40:12;101019.19;;;11.18;100.00
72612;BME280;60655;52.182;4.474;2024-02-16T09:42:14;101020.66;;;11.14;100.00
72612;BME280;60655;52.182;4.474;2024-02-16T09:44:16;101025.56;;;11.17;100.00
72612;BME280;60655;52.182;4.474;2024-02-16T09:46:18;101033.53;;;11.17;100.00
72612;BME280;60655;52.182;4.474;2024-02-16T09:48:20;101047.03;;;11.15;100.00
72612;BME280;60655;52.182;4.474;2024-02-16T09:50:22;101048.31;;;11.06;100.00
72612;BME280;60655;52.182;4.474;2024-02-16T09:52:24;101055.91;;;11.03;100.00
72612;BME280;60655;52.182;4.474;2024-02-16T09:54:25;101062.03;;;11.03;100.00
72612;BME280;60655;52.182;4.474;2024-02-16T09:56:26;101079.81;;;11.03;100.00
72612;BME280;60655;52.182;4.474;2024-02-16T09:58:27;101084.13;;;10.97;100.00
72612;BME280;60655;52.182;4.474;2024-02-16T10:00:29;101082.13;;;10.93;100.00
72612;BME280;60655;52.182;4.474;2024-02-16T10:02:43;101090.13;;;10.93;100.00
72612;BME280;60655;52.182;4.474;2024-02-16T10:04:44;101097.28;;;10.86;100.00
72612;BME280;60655;52.182;4.474;2024-02-16T10:06:46;101092.03;;;10.72;100.00
72612;BME280;60655;52.182;4.474;2024-02-16T10:08:55;101092.63;;;10.74;100.00
72612;BME280;60655;52.182;4.474;2024-02-16T10:11:03;101100.59;;;10.81;100.00
72612;BME280;60655;52.182;4.474;2024-02-16T10:13:05;101109.38;;;10.81;100.00
72612;BME280;60655;52.182;4.474;2024-02-16T10:15:07;101110.59;;;10.79;100.00
72612;BME280;60655;52.182;4.474;2024-02-16T10:17:08;101105.06;;;10.80;100.00
72612;BME280;60655;52.182;4.474;2024-02-16T10:19:10;101111.44;;;10.73;100.00
72612;BME280;60655;52.182;4.474;2024-02-16T10:21:11;101127.38;;;10.73;100.00
72612;BME280;60655;52.182;4.474;2024-02-16T10:23:12;101134.78;;;10.64;100.00
72612;BME280;60655;52.182;4.474;2024-02-16T10:25:13;101121.94;;;10.55;100.00
72612;BME280;60655;52.182;4.474;2024-02-16T10:27:15;101139.09;;;10.65;100.00